sensor_id;sensor_type;location;lat;lon;timestamp;P1;durP1;ratioP1;P2;durP2;ratioP2
8017;SDS011;4054;52.666;4.770;2023-04-01T00:00:28;86.53;;;66.10;;
8017;SDS011;4054;52.666;4.770;2023-04-01T00:01:01;88.40;;;63.83;;
8017;SDS011;4054;52.666;4.770;2023-04-01T00:01:34;78.32;;;64.15;;
8017;SDS011;4054;52.666;4.770;2023-04-01T00:02:08;82.07;;;65.03;;
8017;SDS011;4054;52.666;4.770;2023-04-01T00:02:40;83.07;;;64.90;;
8017;SDS011;4054;52.666;4.770;2023-04-01T00:03:13;86.38;;;65.22;;
8017;SDS011;4054;52.666;4.770;2023-04-01T00:03:45;79.22;;;63.63;;
8017;SDS011;4054;52.666;4.770;2023-04-01T00:04:17;73.70;;;63.85;;
8017;SDS011;4054;52.666;4.770;2023-04-01T00:04:51;87.47;;;65.20;;
8017;SDS011;4054;52.666;4.770;2023-04-01T00:05:23;81.57;;;65.32;;
8017;SDS011;4054;52.666;4.770;2023-04-01T00:05:55;88.38;;;64.20;;
8017;SDS011;4054;52.666;4.770;2023-04-01T00:06:29;73.55;;;64.10;;
8017;SDS011;4054;52.666;4.770;2023-04-01T00:07:01;78.65;;;65.03;;
8017;SDS011;4054;52.666;4.770;2023-04-01T00:07:34;86.07;;;65.90;;
8017;SDS011;4054;52.666;4.770;2023-04-01T00:08:07;100.97;;;65.55;;
8017;SDS011;4054;52.666;4.770;2023-04-01T00:08:41;91.65;;;66.57;;
8017;SDS011;4054;52.666;4.770;2023-04-01T00:09:14;87.05;;;65.53;;
8017;SDS011;4054;52.666;4.770;2023-04-01T00:09:47;84.30;;;64.85;;
8017;SDS011;4054;52.666;4.770;2023-04-01T00:10:19;83.50;;;66.28;;
8017;SDS011;4054;52.666;4.770;2023-04-01T00:10:51;78.32;;;65.45;;
8017;SDS011;4054;52.666;4.770;2023-04-01T00:11:25;85.15;;;64.88;;
8017;SDS011;4054;52.666;4.770;2023-04-01T00:11:58;78.75;;;65.40;;
8017;SDS011;4054;52.666;4.770;2023-04-01T00:12:30;79.90;;;64.90;;
8017;SDS011;4054;52.666;4.770;2023-04-01T00:13:03;83.20;;;65.10;;
8017;SDS011;4054;52.666;4.770;2023-04-01T00:13:36;81.75;;;65.15;;
8017;SDS011;4054;52.666;4.770;2023-04-01T00:14:08;86.03;;;65.72;;
8017;SDS011;4054;52.666;4.770;2023-04-01T00:14:41;91.40;;;66.00;;
8017;SDS011;4054;52.666;4.770;2023-04-01T00:15:13;80.43;;;64.53;;
8017;SDS011;4054;52.666;4.770;2023-04-01T00:15:45;79.70;;;65.90;;
8017;SDS011;4054;52.666;4.770;2023-04-01T00:16:19;80.38;;;64.53;;
8017;SDS011;4054;52.666;4.770;2023-04-01T00:16:53;78.80;;;65.05;;
8017;SDS011;4054;52.666;4.770;2023-04-01T00:17:26;72.88;;;65.03;;
8017;SDS011;4054;52.666;4.770;2023-04-01T00:17:59;74.55;;;64.85;;
8017;SDS011;4054;52.666;4.770;2023-04-01T00:18:32;76.18;;;66.05;;
8017;SDS011;4054;52.666;4.770;2023-04-01T00:19:04;81.72;;;65.40;;
8017;SDS011;4054;52.666;4.770;2023-04-01T00:19:37;78.10;;;65.18;;
8017;SDS011;4054;52.666;4.770;2023-04-01T00:20:09;83.85;;;65.35;;
8017;SDS011;4054;52.666;4.770;2023-04-01T00:20:43;78.72;;;65.90;;
8017;SDS011;4054;52.666;4.770;2023-04-01T00:21:19;90.30;;;66.15;;
8017;SDS011;4054;52.666;4.770;2023-04-01T00:21:56;73.60;;;64.32;;
8017;SDS011;4054;52.666;4.770;2023-04-01T00:22:28;94.07;;;65.90;;
8017;SDS011;4054;52.666;4.770;2023-04-01T00:23:00;81.75;;;64.97;;
8017;SDS011;4054;52.666;4.770;2023-04-01T00:23:33;86.28;;;65.05;;
8017;SDS011;4054;52.666;4.770;2023-04-01T00:24:06;81.32;;;66.00;;
8017;SDS011;4054;52.666;4.770;2023-04-01T00:24:39;78.68;;;65.22;;
8017;SDS011;4054;52.666;4.770;2023-04-01T00:25:11;77.35;;;64.40;;
8017;SDS011;4054;52.666;4.770;2023-04-01T00:25:44;78.80;;;64.43;;
8017;SDS011;4054;52.666;4.770;2023-04-01T00:26:17;75.95;;;64.80;;
8017;SDS011;4054;52.666;4.770;2023-04-01T00:26:52;82.95;;;64.88;;
8017;SDS011;4054;52.666;4.770;2023-04-01T00:27:25;80.18;;;66.68;;
8017;SDS011;4054;52.666;4.770;2023-04-01T00:27:57;79.93;;;63.90;;
8017;SDS011;4054;52.666;4.770;2023-04-01T00:28:30;85.90;;;65.90;;
8017;SDS011;4054;52.666;4.770;2023-04-01T00:29:02;75.65;;;64.72;;
8017;SDS011;4054;52.666;4.770;2023-04-01T00:29:36;78.90;;;64.97;;
8017;SDS011;4054;52.666;4.770;2023-04-01T00:30:09;80.20;;;65.70;;
8017;SDS011;4054;52.666;4.770;2023-04-01T00:30:41;84.63;;;64.68;;
8017;SDS011;4054;52.666;4.770;2023-04-01T00:31:14;71.32;;;64.25;;
8017;SDS011;4054;52.666;4.770;2023-04-01T00:31:46;88.55;;;64.13;;
8017;SDS011;4054;52.666;4.770;2023-04-01T00:32:19;79.32;;;65.28;;
8017;SDS011;4054;52.666;4.770;2023-04-01T00:32:54;84.43;;;65.70;;
8017;SDS011;4054;52.666;4.770;2023-04-01T00:33:26;82.05;;;65.68;;
8017;SDS011;4054;52.666;4.770;2023-04-01T00:33:59;81.25;;;66.05;;
8017;SDS011;4054;52.666;4.770;2023-04-01T00:34:32;79.97;;;66.05;;
8017;SDS011;4054;52.666;4.770;2023-04-01T00:35:04;79.03;;;64.47;;
8017;SDS011;4054;52.666;4.770;2023-04-01T00:35:36;72.90;;;65.15;;
8017;SDS011;4054;52.666;4.770;2023-04-01T00:36:09;79.13;;;63.70;;
8017;SDS011;4054;52.666;4.770;2023-04-01T00:36:42;80.07;;;64.78;;
8017;SDS011;4054;52.666;4.770;2023-04-01T00:37:14;79.13;;;63.95;;
8017;SDS011;4054;52.666;4.770;2023-04-01T00:37:47;73.45;;;64.85;;
8017;SDS011;4054;52.666;4.770;2023-04-01T00:38:19;85.32;;;66.30;;
8017;SDS011;4054;52.666;4.770;2023-04-01T00:38:51;77.63;;;63.92;;
8017;SDS011;4054;52.666;4.770;2023-04-01T00:39:24;75.95;;;65.40;;
8017;SDS011;4054;52.666;4.770;2023-04-01T00:39:56;82.15;;;64.72;;
8017;SDS011;4054;52.666;4.770;2023-04-01T00:40:29;75.85;;;64.47;;
8017;SDS011;4054;52.666;4.770;2023-04-01T00:41:04;86.90;;;65.95;;
8017;SDS011;4054;52.666;4.770;2023-04-01T00:41:37;82.05;;;64.85;;
8017;SDS011;4054;52.666;4.770;2023-04-01T00:42:09;79.53;;;65.40;;
8017;SDS011;4054;52.666;4.770;2023-04-01T00:42:43;80.45;;;65.43;;
8017;SDS011;4054;52.666;4.770;2023-04-01T00:43:17;79.07;;;66.07;;
8017;SDS011;4054;52.666;4.770;2023-04-01T00:43:51;75.65;;;65.45;;
8017;SDS011;4054;52.666;4.770;2023-04-01T00:44:25;82.07;;;65.30;;
8017;SDS011;4054;52.666;4.770;2023-04-01T00:44:58;73.78;;;65.05;;
8017;SDS011;4054;52.666;4.770;2023-04-01T00:45:59;78.47;;;65.68;;
8017;SDS011;4054;52.666;4.770;2023-04-01T00:46:32;74.70;;;65.35;;
8017;SDS011;4054;52.666;4.770;2023-04-01T00:47:05;82.20;;;66.13;;
8017;SDS011;4054;52.666;4.770;2023-04-01T00:47:37;95.60;;;65.82;;
8017;SDS011;4054;52.666;4.770;2023-04-01T00:48:11;87.85;;;65.55;;
8017;SDS011;4054;52.666;4.770;2023-04-01T00:48:48;84.70;;;66.22;;
8017;SDS011;4054;52.666;4.770;2023-04-01T00:49:23;76.63;;;65.22;;
8017;SDS011;4054;52.666;4.770;2023-04-01T00:49:58;72.60;;;65.10;;
8017;SDS011;4054;52.666;4.770;2023-04-01T00:50:32;87.95;;;66.22;;
8017;SDS011;4054;52.666;4.770;2023-04-01T00:51:08;77.30;;;66.00;;
8017;SDS011;4054;52.666;4.770;2023-04-01T00:51:43;73.25;;;65.55;;
8017;SDS011;4054;52.666;4.770;2023-04-01T00:52:21;76.32;;;65.63;;
8017;SDS011;4054;52.666;4.770;2023-04-01T00:52:54;74.35;;;66.32;;
8017;SDS011;4054;52.666;4.770;2023-04-01T00:53:26;73.63;;;65.60;;
8017;SDS011;4054;52.666;4.770;2023-04-01T00:54:02;72.43;;;64.82;;
8017;SDS011;4054;52.666;4.770;2023-04-01T00:54:35;73.20;;;65.38;;
8017;SDS011;4054;52.666;4.770;2023-04-01T00:55:08;73.60;;;65.68;;
8017;SDS011;4054;52.666;4.770;2023-04-01T00:55:45;72.22;;;64.72;;
8017;SDS011;4054;52.666;4.770;2023-04-01T00:56:24;72.70;;;64.80;;
8017;SDS011;4054;52.666;4.770;2023-04-01T00:56:59;71.70;;;64.28;;
8017;SDS011;4054;52.666;4.770;2023-04-01T00:57:34;72.05;;;64.78;;
8017;SDS011;4054;52.666;4.770;2023-04-01T00:58:08;72.65;;;64.93;;
8017;SDS011;4054;52.666;4.770;2023-04-01T00:58:46;72.28;;;64.70;;
8017;SDS011;4054;52.666;4.770;2023-04-01T00:59:22;72.70;;;64.95;;
8017;SDS011;4054;52.666;4.770;2023-04-01T00:59:56;73.47;;;65.47;;
8017;SDS011;4054;52.666;4.770;2023-04-01T01:00:29;72.18;;;64.80;;
8017;SDS011;4054;52.666;4.770;2023-04-01T01:01:02;72.53;;;64.72;;
8017;SDS011;4054;52.666;4.770;2023-04-01T01:01:37;73.75;;;65.82;;
8017;SDS011;4054;52.666;4.770;2023-04-01T01:02:10;71.25;;;63.95;;
8017;SDS011;4054;52.666;4.770;2023-04-01T01:02:44;70.78;;;64.00;;
8017;SDS011;4054;52.666;4.770;2023-04-01T01:03:20;71.28;;;64.10;;
8017;SDS011;4054;52.666;4.770;2023-04-01T01:03:52;71.93;;;64.60;;
8017;SDS011;4054;52.666;4.770;2023-04-01T01:04:25;71.72;;;64.72;;
8017;SDS011;4054;52.666;4.770;2023-04-01T01:04:59;72.25;;;64.93;;
8017;SDS011;4054;52.666;4.770;2023-04-01T01:05:34;72.45;;;65.22;;
8017;SDS011;4054;52.666;4.770;2023-04-01T01:06:23;71.82;;;64.20;;
8017;SDS011;4054;52.666;4.770;2023-04-01T01:07:05;70.47;;;63.75;;
8017;SDS011;4054;52.666;4.770;2023-04-01T01:07:44;71.35;;;64.25;;
8017;SDS011;4054;52.666;4.770;2023-04-01T01:08:25;72.15;;;64.72;;
8017;SDS011;4054;52.666;4.770;2023-04-01T01:09:12;70.07;;;63.30;;
8017;SDS011;4054;52.666;4.770;2023-04-01T01:09:51;70.32;;;63.65;;
8017;SDS011;4054;52.666;4.770;2023-04-01T01:10:30;69.70;;;63.25;;
8017;SDS011;4054;52.666;4.770;2023-04-01T01:11:08;69.78;;;63.33;;
8017;SDS011;4054;52.666;4.770;2023-04-01T01:11:44;70.53;;;63.63;;
8017;SDS011;4054;52.666;4.770;2023-04-01T01:12:24;69.80;;;63.15;;
8017;SDS011;4054;52.666;4.770;2023-04-01T01:12:59;70.03;;;63.20;;
8017;SDS011;4054;52.666;4.770;2023-04-01T01:13:39;69.68;;;63.13;;
8017;SDS011;4054;52.666;4.770;2023-04-01T01:14:22;71.35;;;64.18;;
8017;SDS011;4054;52.666;4.770;2023-04-01T01:15:02;69.88;;;63.35;;
8017;SDS011;4054;52.666;4.770;2023-04-01T01:15:44;70.47;;;63.83;;
8017;SDS011;4054;52.666;4.770;2023-04-01T01:16:20;69.40;;;63.03;;
8017;SDS011;4054;52.666;4.770;2023-04-01T01:16:58;68.90;;;62.70;;
8017;SDS011;4054;52.666;4.770;2023-04-01T01:17:37;68.50;;;62.40;;
8017;SDS011;4054;52.666;4.770;2023-04-01T01:18:18;68.97;;;62.97;;
8017;SDS011;4054;52.666;4.770;2023-04-01T01:19:02;69.47;;;63.13;;
8017;SDS011;4054;52.666;4.770;2023-04-01T01:20:10;69.07;;;62.80;;
8017;SDS011;4054;52.666;4.770;2023-04-01T01:21:13;69.00;;;62.75;;
8017;SDS011;4054;52.666;4.770;2023-04-01T01:22:06;68.95;;;62.60;;
8017;SDS011;4054;52.666;4.770;2023-04-01T01:22:57;68.20;;;61.92;;
8017;SDS011;4054;52.666;4.770;2023-04-01T01:23:52;68.10;;;61.97;;
8017;SDS011;4054;52.666;4.770;2023-04-01T01:25:44;68.47;;;61.97;;
8017;SDS011;4054;52.666;4.770;2023-04-01T01:27:21;67.70;;;61.65;;
8017;SDS011;4054;52.666;4.770;2023-04-01T01:27:56;68.53;;;62.50;;
8017;SDS011;4054;52.666;4.770;2023-04-01T01:28:34;67.90;;;61.85;;
8017;SDS011;4054;52.666;4.770;2023-04-01T01:30:14;67.95;;;61.95;;
8017;SDS011;4054;52.666;4.770;2023-04-01T01:31:02;66.95;;;61.20;;
8017;SDS011;4054;52.666;4.770;2023-04-01T01:31:43;67.00;;;61.30;;
8017;SDS011;4054;52.666;4.770;2023-04-01T01:32:21;67.68;;;61.47;;
8017;SDS011;4054;52.666;4.770;2023-04-01T01:33:12;67.25;;;61.15;;
8017;SDS011;4054;52.666;4.770;2023-04-01T01:34:01;66.25;;;60.80;;
8017;SDS011;4054;52.666;4.770;2023-04-01T01:34:46;66.30;;;60.80;;
8017;SDS011;4054;52.666;4.770;2023-04-01T01:35:26;66.43;;;60.92;;
8017;SDS011;4054;52.666;4.770;2023-04-01T01:36:03;65.72;;;60.25;;
8017;SDS011;4054;52.666;4.770;2023-04-01T01:36:38;64.90;;;59.67;;
8017;SDS011;4054;52.666;4.770;2023-04-01T01:37:14;66.50;;;60.90;;
8017;SDS011;4054;52.666;4.770;2023-04-01T01:37:49;66.13;;;60.40;;
8017;SDS011;4054;52.666;4.770;2023-04-01T01:38:26;67.28;;;61.33;;
8017;SDS011;4054;52.666;4.770;2023-04-01T01:39:05;66.50;;;60.70;;
8017;SDS011;4054;52.666;4.770;2023-04-01T01:39:41;66.65;;;61.03;;
8017;SDS011;4054;52.666;4.770;2023-04-01T01:40:15;66.90;;;61.30;;
8017;SDS011;4054;52.666;4.770;2023-04-01T01:40:48;67.55;;;61.65;;
8017;SDS011;4054;52.666;4.770;2023-04-01T01:41:25;66.28;;;60.70;;
8017;SDS011;4054;52.666;4.770;2023-04-01T01:42:00;67.53;;;61.20;;
8017;SDS011;4054;52.666;4.770;2023-04-01T01:42:34;67.85;;;61.85;;
8017;SDS011;4054;52.666;4.770;2023-04-01T01:43:11;67.43;;;61.50;;
8017;SDS011;4054;52.666;4.770;2023-04-01T01:43:47;67.50;;;61.72;;
8017;SDS011;4054;52.666;4.770;2023-04-01T01:44:21;67.28;;;61.45;;
8017;SDS011;4054;52.666;4.770;2023-04-01T01:44:56;67.85;;;61.78;;
8017;SDS011;4054;52.666;4.770;2023-04-01T01:45:31;66.82;;;61.15;;
8017;SDS011;4054;52.666;4.770;2023-04-01T01:46:06;68.30;;;62.17;;
8017;SDS011;4054;52.666;4.770;2023-04-01T01:46:43;68.00;;;62.10;;
8017;SDS011;4054;52.666;4.770;2023-04-01T01:47:17;68.40;;;62.25;;
8017;SDS011;4054;52.666;4.770;2023-04-01T01:47:52;67.45;;;61.58;;
8017;SDS011;4054;52.666;4.770;2023-04-01T01:48:26;68.95;;;62.67;;
8017;SDS011;4054;52.666;4.770;2023-04-01T01:49:01;70.20;;;63.30;;
8017;SDS011;4054;52.666;4.770;2023-04-01T01:49:36;69.28;;;62.72;;
8017;SDS011;4054;52.666;4.770;2023-04-01T01:50:10;68.53;;;62.30;;
8017;SDS011;4054;52.666;4.770;2023-04-01T01:50:45;68.80;;;62.58;;
8017;SDS011;4054;52.666;4.770;2023-04-01T01:51:20;68.95;;;62.55;;
8017;SDS011;4054;52.666;4.770;2023-04-01T01:51:53;69.20;;;62.78;;
8017;SDS011;4054;52.666;4.770;2023-04-01T01:52:27;69.82;;;63.25;;
8017;SDS011;4054;52.666;4.770;2023-04-01T01:53:00;69.68;;;63.13;;
8017;SDS011;4054;52.666;4.770;2023-04-01T01:53:35;71.18;;;64.18;;
8017;SDS011;4054;52.666;4.770;2023-04-01T01:54:11;69.28;;;62.75;;
8017;SDS011;4054;52.666;4.770;2023-04-01T01:54:47;70.40;;;63.67;;
8017;SDS011;4054;52.666;4.770;2023-04-01T01:55:26;70.25;;;63.42;;
8017;SDS011;4054;52.666;4.770;2023-04-01T01:56:00;69.30;;;62.97;;
8017;SDS011;4054;52.666;4.770;2023-04-01T01:56:36;69.25;;;62.92;;
8017;SDS011;4054;52.666;4.770;2023-04-01T01:57:09;70.05;;;63.33;;
8017;SDS011;4054;52.666;4.770;2023-04-01T01:57:46;70.38;;;63.60;;
8017;SDS011;4054;52.666;4.770;2023-04-01T01:58:22;69.57;;;63.17;;
8017;SDS011;4054;52.666;4.770;2023-04-01T01:58:58;70.05;;;63.38;;
8017;SDS011;4054;52.666;4.770;2023-04-01T01:59:35;69.55;;;63.25;;
8017;SDS011;4054;52.666;4.770;2023-04-01T02:00:10;69.90;;;63.55;;
8017;SDS011;4054;52.666;4.770;2023-04-01T02:00:48;69.60;;;63.08;;
8017;SDS011;4054;52.666;4.770;2023-04-01T02:01:23;68.43;;;62.47;;
8017;SDS011;4054;52.666;4.770;2023-04-01T02:02:00;70.05;;;63.35;;
8017;SDS011;4054;52.666;4.770;2023-04-01T02:02:39;69.50;;;62.95;;
8017;SDS011;4054;52.666;4.770;2023-04-01T02:03:11;70.53;;;63.58;;
8017;SDS011;4054;52.666;4.770;2023-04-01T02:03:44;69.75;;;63.17;;
8017;SDS011;4054;52.666;4.770;2023-04-01T02:04:19;70.13;;;63.83;;
8017;SDS011;4054;52.666;4.770;2023-04-01T02:04:53;69.32;;;62.95;;
8017;SDS011;4054;52.666;4.770;2023-04-01T02:05:26;70.07;;;63.35;;
8017;SDS011;4054;52.666;4.770;2023-04-01T02:06:11;70.63;;;64.15;;
8017;SDS011;4054;52.666;4.770;2023-04-01T02:06:47;70.78;;;63.92;;
8017;SDS011;4054;52.666;4.770;2023-04-01T02:07:26;70.65;;;63.58;;
8017;SDS011;4054;52.666;4.770;2023-04-01T02:08:02;70.95;;;63.90;;
8017;SDS011;4054;52.666;4.770;2023-04-01T02:08:39;69.88;;;63.38;;
8017;SDS011;4054;52.666;4.770;2023-04-01T02:09:15;70.20;;;63.58;;
8017;SDS011;4054;52.666;4.770;2023-04-01T02:09:48;71.63;;;64.82;;
8017;SDS011;4054;52.666;4.770;2023-04-01T02:10:21;70.90;;;64.18;;
8017;SDS011;4054;52.666;4.770;2023-04-01T02:10:58;70.57;;;63.97;;
8017;SDS011;4054;52.666;4.770;2023-04-01T02:11:39;72.32;;;65.07;;
8017;SDS011;4054;52.666;4.770;2023-04-01T02:12:18;71.28;;;64.28;;
8017;SDS011;4054;52.666;4.770;2023-04-01T02:12:52;71.53;;;64.47;;
8017;SDS011;4054;52.666;4.770;2023-04-01T02:13:29;71.75;;;65.00;;
8017;SDS011;4054;52.666;4.770;2023-04-01T02:14:06;71.05;;;64.20;;
8017;SDS011;4054;52.666;4.770;2023-04-01T02:14:42;71.45;;;64.40;;
8017;SDS011;4054;52.666;4.770;2023-04-01T02:15:17;71.35;;;64.30;;
8017;SDS011;4054;52.666;4.770;2023-04-01T02:15:52;72.25;;;65.05;;
8017;SDS011;4054;52.666;4.770;2023-04-01T02:16:28;71.28;;;64.63;;
8017;SDS011;4054;52.666;4.770;2023-04-01T02:17:04;71.53;;;64.65;;
8017;SDS011;4054;52.666;4.770;2023-04-01T02:17:39;71.03;;;64.25;;
8017;SDS011;4054;52.666;4.770;2023-04-01T02:18:15;71.10;;;64.57;;
8017;SDS011;4054;52.666;4.770;2023-04-01T02:18:48;71.00;;;64.13;;
8017;SDS011;4054;52.666;4.770;2023-04-01T02:19:24;71.47;;;64.68;;
8017;SDS011;4054;52.666;4.770;2023-04-01T02:20:01;72.53;;;65.10;;
8017;SDS011;4054;52.666;4.770;2023-04-01T02:20:36;71.30;;;64.30;;
8017;SDS011;4054;52.666;4.770;2023-04-01T02:21:11;72.47;;;65.55;;
8017;SDS011;4054;52.666;4.770;2023-04-01T02:21:44;71.88;;;64.82;;
8017;SDS011;4054;52.666;4.770;2023-04-01T02:22:17;72.05;;;65.20;;
8017;SDS011;4054;52.666;4.770;2023-04-01T02:22:54;71.57;;;64.40;;
8017;SDS011;4054;52.666;4.770;2023-04-01T02:23:29;70.38;;;63.70;;
8017;SDS011;4054;52.666;4.770;2023-04-01T02:24:08;71.53;;;64.47;;
8017;SDS011;4054;52.666;4.770;2023-04-01T02:24:43;69.80;;;63.60;;
8017;SDS011;4054;52.666;4.770;2023-04-01T02:25:17;72.53;;;65.28;;
8017;SDS011;4054;52.666;4.770;2023-04-01T02:25:53;70.10;;;63.28;;
8017;SDS011;4054;52.666;4.770;2023-04-01T02:26:25;71.88;;;64.53;;
8017;SDS011;4054;52.666;4.770;2023-04-01T02:26:58;71.70;;;64.82;;
8017;SDS011;4054;52.666;4.770;2023-04-01T02:27:33;73.13;;;65.43;;
8017;SDS011;4054;52.666;4.770;2023-04-01T02:28:06;72.70;;;65.32;;
8017;SDS011;4054;52.666;4.770;2023-04-01T02:28:39;70.93;;;64.13;;
8017;SDS011;4054;52.666;4.770;2023-04-01T02:29:17;72.07;;;64.80;;
8017;SDS011;4054;52.666;4.770;2023-04-01T02:29:51;71.15;;;64.30;;
8017;SDS011;4054;52.666;4.770;2023-04-01T02:30:24;72.57;;;65.28;;
8017;SDS011;4054;52.666;4.770;2023-04-01T02:30:59;71.70;;;64.68;;
8017;SDS011;4054;52.666;4.770;2023-04-01T02:31:33;72.28;;;65.53;;
8017;SDS011;4054;52.666;4.770;2023-04-01T02:32:06;70.32;;;63.70;;
8017;SDS011;4054;52.666;4.770;2023-04-01T02:32:40;71.05;;;64.57;;
8017;SDS011;4054;52.666;4.770;2023-04-01T02:33:13;72.60;;;65.40;;
8017;SDS011;4054;52.666;4.770;2023-04-01T02:33:46;72.28;;;65.05;;
8017;SDS011;4054;52.666;4.770;2023-04-01T02:34:20;71.10;;;64.45;;
8017;SDS011;4054;52.666;4.770;2023-04-01T02:34:53;72.13;;;65.32;;
8017;SDS011;4054;52.666;4.770;2023-04-01T02:35:26;71.30;;;64.47;;
8017;SDS011;4054;52.666;4.770;2023-04-01T02:35:59;69.82;;;63.20;;
8017;SDS011;4054;52.666;4.770;2023-04-01T02:36:34;71.30;;;64.68;;
8017;SDS011;4054;52.666;4.770;2023-04-01T02:37:08;72.78;;;65.57;;
8017;SDS011;4054;52.666;4.770;2023-04-01T02:37:44;70.82;;;63.95;;
8017;SDS011;4054;52.666;4.770;2023-04-01T02:38:19;71.60;;;64.68;;
8017;SDS011;4054;52.666;4.770;2023-04-01T02:38:52;71.35;;;64.60;;
8017;SDS011;4054;52.666;4.770;2023-04-01T02:39:26;71.80;;;64.97;;
8017;SDS011;4054;52.666;4.770;2023-04-01T02:39:59;72.68;;;65.63;;
8017;SDS011;4054;52.666;4.770;2023-04-01T02:40:40;72.57;;;65.70;;
8017;SDS011;4054;52.666;4.770;2023-04-01T02:41:14;70.47;;;63.50;;
8017;SDS011;4054;52.666;4.770;2023-04-01T02:41:47;72.47;;;65.28;;
8017;SDS011;4054;52.666;4.770;2023-04-01T02:42:19;73.95;;;66.35;;
8017;SDS011;4054;52.666;4.770;2023-04-01T02:42:51;71.22;;;64.28;;
8017;SDS011;4054;52.666;4.770;2023-04-01T02:43:24;70.60;;;63.92;;
8017;SDS011;4054;52.666;4.770;2023-04-01T02:43:56;70.45;;;63.75;;
8017;SDS011;4054;52.666;4.770;2023-04-01T02:44:29;70.57;;;63.90;;
8017;SDS011;4054;52.666;4.770;2023-04-01T02:45:03;70.72;;;63.90;;
8017;SDS011;4054;52.666;4.770;2023-04-01T02:45:36;69.72;;;63.40;;
8017;SDS011;4054;52.666;4.770;2023-04-01T02:46:08;69.80;;;63.28;;
8017;SDS011;4054;52.666;4.770;2023-04-01T02:46:42;69.03;;;62.83;;
8017;SDS011;4054;52.666;4.770;2023-04-01T02:47:14;69.63;;;63.42;;
8017;SDS011;4054;52.666;4.770;2023-04-01T02:47:46;67.95;;;61.95;;
8017;SDS011;4054;52.666;4.770;2023-04-01T02:48:18;69.07;;;62.67;;
8017;SDS011;4054;52.666;4.770;2023-04-01T02:48:51;68.85;;;62.65;;
8017;SDS011;4054;52.666;4.770;2023-04-01T02:49:24;68.00;;;62.10;;
8017;SDS011;4054;52.666;4.770;2023-04-01T02:49:57;69.13;;;62.65;;
8017;SDS011;4054;52.666;4.770;2023-04-01T02:50:35;69.75;;;63.35;;
8017;SDS011;4054;52.666;4.770;2023-04-01T02:51:07;68.57;;;62.55;;
8017;SDS011;4054;52.666;4.770;2023-04-01T02:51:42;69.50;;;62.90;;
8017;SDS011;4054;52.666;4.770;2023-04-01T02:52:14;70.43;;;63.80;;
8017;SDS011;4054;52.666;4.770;2023-04-01T02:52:46;68.57;;;62.15;;
8017;SDS011;4054;52.666;4.770;2023-04-01T02:53:19;69.32;;;62.88;;
8017;SDS011;4054;52.666;4.770;2023-04-01T02:53:51;68.70;;;62.20;;
8017;SDS011;4054;52.666;4.770;2023-04-01T02:54:23;68.22;;;62.05;;
8017;SDS011;4054;52.666;4.770;2023-04-01T02:54:56;68.88;;;62.67;;
8017;SDS011;4054;52.666;4.770;2023-04-01T02:55:29;69.28;;;62.90;;
8017;SDS011;4054;52.666;4.770;2023-04-01T02:56:02;70.47;;;64.05;;
8017;SDS011;4054;52.666;4.770;2023-04-01T02:56:35;70.30;;;63.85;;
8017;SDS011;4054;52.666;4.770;2023-04-01T02:57:07;69.53;;;63.17;;
8017;SDS011;4054;52.666;4.770;2023-04-01T02:57:39;68.72;;;62.63;;
8017;SDS011;4054;52.666;4.770;2023-04-01T02:58:12;68.30;;;62.33;;
8017;SDS011;4054;52.666;4.770;2023-04-01T02:58:44;68.93;;;62.58;;
8017;SDS011;4054;52.666;4.770;2023-04-01T02:59:16;69.37;;;62.80;;
8017;SDS011;4054;52.666;4.770;2023-04-01T02:59:49;69.07;;;62.50;;
8017;SDS011;4054;52.666;4.770;2023-04-01T03:00:21;68.22;;;62.30;;
8017;SDS011;4054;52.666;4.770;2023-04-01T03:00:53;69.45;;;63.05;;
8017;SDS011;4054;52.666;4.770;2023-04-01T03:01:25;69.20;;;62.83;;
8017;SDS011;4054;52.666;4.770;2023-04-01T03:01:59;69.32;;;63.25;;
8017;SDS011;4054;52.666;4.770;2023-04-01T03:02:31;69.32;;;63.08;;
8017;SDS011;4054;52.666;4.770;2023-04-01T03:03:03;69.25;;;62.97;;
8017;SDS011;4054;52.666;4.770;2023-04-01T03:03:37;69.63;;;63.20;;
8017;SDS011;4054;52.666;4.770;2023-04-01T03:04:09;68.68;;;62.47;;
8017;SDS011;4054;52.666;4.770;2023-04-01T03:04:42;69.28;;;62.97;;
8017;SDS011;4054;52.666;4.770;2023-04-01T03:05:14;67.93;;;61.92;;
8017;SDS011;4054;52.666;4.770;2023-04-01T03:05:48;69.55;;;63.28;;
8017;SDS011;4054;52.666;4.770;2023-04-01T03:06:20;68.75;;;62.50;;
8017;SDS011;4054;52.666;4.770;2023-04-01T03:06:54;68.43;;;62.20;;
8017;SDS011;4054;52.666;4.770;2023-04-01T03:07:27;68.03;;;62.00;;
8017;SDS011;4054;52.666;4.770;2023-04-01T03:07:59;69.00;;;62.67;;
8017;SDS011;4054;52.666;4.770;2023-04-01T03:08:31;68.38;;;62.35;;
8017;SDS011;4054;52.666;4.770;2023-04-01T03:09:07;68.03;;;61.78;;
8017;SDS011;4054;52.666;4.770;2023-04-01T03:09:40;67.70;;;61.70;;
8017;SDS011;4054;52.666;4.770;2023-04-01T03:10:12;68.28;;;62.10;;
8017;SDS011;4054;52.666;4.770;2023-04-01T03:10:46;68.55;;;62.45;;
8017;SDS011;4054;52.666;4.770;2023-04-01T03:11:18;68.32;;;62.38;;
8017;SDS011;4054;52.666;4.770;2023-04-01T03:11:50;68.00;;;61.80;;
8017;SDS011;4054;52.666;4.770;2023-04-01T03:12:22;68.57;;;62.58;;
8017;SDS011;4054;52.666;4.770;2023-04-01T03:12:55;68.90;;;62.55;;
8017;SDS011;4054;52.666;4.770;2023-04-01T03:13:28;68.28;;;62.33;;
8017;SDS011;4054;52.666;4.770;2023-04-01T03:14:00;68.93;;;62.45;;
8017;SDS011;4054;52.666;4.770;2023-04-01T03:14:33;67.88;;;62.00;;
8017;SDS011;4054;52.666;4.770;2023-04-01T03:15:06;68.20;;;62.17;;
8017;SDS011;4054;52.666;4.770;2023-04-01T03:15:44;67.03;;;61.33;;
8017;SDS011;4054;52.666;4.770;2023-04-01T03:16:18;67.65;;;61.88;;
8017;SDS011;4054;52.666;4.770;2023-04-01T03:16:50;67.85;;;62.08;;
8017;SDS011;4054;52.666;4.770;2023-04-01T03:17:22;66.88;;;60.97;;
8017;SDS011;4054;52.666;4.770;2023-04-01T03:17:56;68.10;;;61.90;;
8017;SDS011;4054;52.666;4.770;2023-04-01T03:18:28;65.95;;;60.47;;
8017;SDS011;4054;52.666;4.770;2023-04-01T03:19:10;67.30;;;61.53;;
8017;SDS011;4054;52.666;4.770;2023-04-01T03:19:43;66.78;;;61.15;;
8017;SDS011;4054;52.666;4.770;2023-04-01T03:20:15;66.43;;;61.03;;
8017;SDS011;4054;52.666;4.770;2023-04-01T03:20:48;66.88;;;61.13;;
8017;SDS011;4054;52.666;4.770;2023-04-01T03:21:21;66.32;;;60.78;;
8017;SDS011;4054;52.666;4.770;2023-04-01T03:21:55;66.03;;;60.55;;
8017;SDS011;4054;52.666;4.770;2023-04-01T03:22:28;66.43;;;60.70;;
8017;SDS011;4054;52.666;4.770;2023-04-01T03:23:00;66.13;;;60.58;;
8017;SDS011;4054;52.666;4.770;2023-04-01T03:23:32;65.38;;;60.00;;
8017;SDS011;4054;52.666;4.770;2023-04-01T03:24:04;65.93;;;60.47;;
8017;SDS011;4054;52.666;4.770;2023-04-01T03:24:38;65.75;;;60.08;;
8017;SDS011;4054;52.666;4.770;2023-04-01T03:25:10;66.35;;;60.78;;
8017;SDS011;4054;52.666;4.770;2023-04-01T03:25:43;65.40;;;60.00;;
8017;SDS011;4054;52.666;4.770;2023-04-01T03:26:16;66.57;;;60.80;;
8017;SDS011;4054;52.666;4.770;2023-04-01T03:26:48;66.57;;;61.15;;
8017;SDS011;4054;52.666;4.770;2023-04-01T03:27:20;66.72;;;61.00;;
8017;SDS011;4054;52.666;4.770;2023-04-01T03:27:54;66.47;;;61.08;;
8017;SDS011;4054;52.666;4.770;2023-04-01T03:28:26;66.78;;;61.20;;
8017;SDS011;4054;52.666;4.770;2023-04-01T03:28:58;65.97;;;60.58;;
8017;SDS011;4054;52.666;4.770;2023-04-01T03:29:32;66.80;;;61.00;;
8017;SDS011;4054;52.666;4.770;2023-04-01T03:30:04;67.15;;;61.60;;
8017;SDS011;4054;52.666;4.770;2023-04-01T03:30:44;65.75;;;60.55;;
8017;SDS011;4054;52.666;4.770;2023-04-01T03:31:17;67.88;;;62.10;;
8017;SDS011;4054;52.666;4.770;2023-04-01T03:31:55;67.15;;;61.45;;
8017;SDS011;4054;52.666;4.770;2023-04-01T03:32:29;67.00;;;61.30;;
8017;SDS011;4054;52.666;4.770;2023-04-01T03:33:02;67.20;;;61.35;;
8017;SDS011;4054;52.666;4.770;2023-04-01T03:33:35;67.25;;;61.72;;
8017;SDS011;4054;52.666;4.770;2023-04-01T03:34:07;66.97;;;61.38;;